sensor_id;sensor_type;location;lat;lon;timestamp;temperature;humidity
19908;DHT22;10116;53.112;7.356;2023-02-27T00:00:10;23.70;1.00
19908;DHT22;10116;53.112;7.356;2023-02-27T00:02:43;23.70;1.00
19908;DHT22;10116;53.112;7.356;2023-02-27T00:05:09;23.70;1.00
19908;DHT22;10116;53.112;7.356;2023-02-27T00:07:35;23.70;1.00
19908;DHT22;10116;53.112;7.356;2023-02-27T00:10:01;23.70;1.00
19908;DHT22;10116;53.112;7.356;2023-02-27T00:12:27;23.70;1.00
19908;DHT22;10116;53.112;7.356;2023-02-27T00:14:52;23.70;1.00
19908;DHT22;10116;53.112;7.356;2023-02-27T00:17:18;23.70;1.00
19908;DHT22;10116;53.112;7.356;2023-02-27T00:19:44;23.70;1.00
19908;DHT22;10116;53.112;7.356;2023-02-27T00:22:09;23.70;1.00
19908;DHT22;10116;53.112;7.356;2023-02-27T00:24:35;23.70;1.00
19908;DHT22;10116;53.112;7.356;2023-02-27T00:27:00;23.60;1.00
19908;DHT22;10116;53.112;7.356;2023-02-27T00:29:26;23.70;1.00
19908;DHT22;10116;53.112;7.356;2023-02-27T00:31:51;23.70;1.00
19908;DHT22;10116;53.112;7.356;2023-02-27T00:34:17;23.60;1.00
19908;DHT22;10116;53.112;7.356;2023-02-27T00:36:43;23.60;1.00
19908;DHT22;10116;53.112;7.356;2023-02-27T00:39:08;23.70;1.00
19908;DHT22;10116;53.112;7.356;2023-02-27T00:41:34;23.60;1.00
19908;DHT22;10116;53.112;7.356;2023-02-27T00:44:00;23.60;1.00
19908;DHT22;10116;53.112;7.356;2023-02-27T00:46:25;23.60;1.00
19908;DHT22;10116;53.112;7.356;2023-02-27T00:48:51;23.60;1.00
19908;DHT22;10116;53.112;7.356;2023-02-27T00:51:16;23.60;1.00
19908;DHT22;10116;53.112;7.356;2023-02-27T00:53:44;23.60;1.00
19908;DHT22;10116;53.112;7.356;2023-02-27T00:56:10;23.60;1.00
19908;DHT22;10116;53.112;7.356;2023-02-27T00:58:35;23.60;1.00
19908;DHT22;10116;53.112;7.356;2023-02-27T01:01:01;23.60;1.00
19908;DHT22;10116;53.112;7.356;2023-02-27T01:03:26;23.60;1.00
19908;DHT22;10116;53.112;7.356;2023-02-27T01:05:52;23.60;1.00
19908;DHT22;10116;53.112;7.356;2023-02-27T01:08:18;23.60;1.00
19908;DHT22;10116;53.112;7.356;2023-02-27T01:10:45;23.60;1.00
19908;DHT22;10116;53.112;7.356;2023-02-27T01:13:10;23.60;1.00
19908;DHT22;10116;53.112;7.356;2023-02-27T01:15:36;23.60;1.00
19908;DHT22;10116;53.112;7.356;2023-02-27T01:18:01;23.60;1.00
19908;DHT22;10116;53.112;7.356;2023-02-27T01:20:27;23.50;1.00
19908;DHT22;10116;53.112;7.356;2023-02-27T01:22:53;23.50;1.00
19908;DHT22;10116;53.112;7.356;2023-02-27T01:25:18;23.50;1.00
19908;DHT22;10116;53.112;7.356;2023-02-27T01:27:44;23.50;1.00
19908;DHT22;10116;53.112;7.356;2023-02-27T01:30:10;23.50;1.00
19908;DHT22;10116;53.112;7.356;2023-02-27T01:32:37;23.50;1.00
19908;DHT22;10116;53.112;7.356;2023-02-27T01:35:03;23.50;1.00
19908;DHT22;10116;53.112;7.356;2023-02-27T01:37:28;23.50;1.00
19908;DHT22;10116;53.112;7.356;2023-02-27T01:39:54;23.50;1.00
19908;DHT22;10116;53.112;7.356;2023-02-27T01:42:22;23.50;1.00
19908;DHT22;10116;53.112;7.356;2023-02-27T01:47:32;23.50;1.00
19908;DHT22;10116;53.112;7.356;2023-02-27T01:49:58;23.50;1.00
19908;DHT22;10116;53.112;7.356;2023-02-27T01:52:23;23.50;1.00
19908;DHT22;10116;53.112;7.356;2023-02-27T01:54:49;23.50;1.00
19908;DHT22;10116;53.112;7.356;2023-02-27T01:57:15;23.50;1.00
19908;DHT22;10116;53.112;7.356;2023-02-27T01:59:41;23.50;1.00
19908;DHT22;10116;53.112;7.356;2023-02-27T02:02:15;23.50;1.00
19908;DHT22;10116;53.112;7.356;2023-02-27T02:04:42;23.50;1.00
19908;DHT22;10116;53.112;7.356;2023-02-27T02:07:11;23.50;1.00
19908;DHT22;10116;53.112;7.356;2023-02-27T02:09:46;23.50;1.00
19908;DHT22;10116;53.112;7.356;2023-02-27T02:12:15;23.50;1.00
19908;DHT22;10116;53.112;7.356;2023-02-27T02:14:41;23.50;1.00
19908;DHT22;10116;53.112;7.356;2023-02-27T02:17:22;23.50;1.00
19908;DHT22;10116;53.112;7.356;2023-02-27T02:34:19;23.40;1.00
19908;DHT22;10116;53.112;7.356;2023-02-27T02:56:24;23.40;1.00
19908;DHT22;10116;53.112;7.356;2023-02-27T02:59:04;23.40;1.00
19908;DHT22;10116;53.112;7.356;2023-02-27T03:04:19;23.40;1.00
19908;DHT22;10116;53.112;7.356;2023-02-27T03:07:01;23.40;1.00
19908;DHT22;10116;53.112;7.356;2023-02-27T03:09:36;23.40;1.00
19908;DHT22;10116;53.112;7.356;2023-02-27T03:12:08;23.40;1.00
19908;DHT22;10116;53.112;7.356;2023-02-27T03:14:39;23.40;1.00
19908;DHT22;10116;53.112;7.356;2023-02-27T03:17:09;23.40;1.00
19908;DHT22;10116;53.112;7.356;2023-02-27T03:19:48;23.40;1.00
19908;DHT22;10116;53.112;7.356;2023-02-27T03:22:21;23.40;1.00
19908;DHT22;10116;53.112;7.356;2023-02-27T03:24:50;23.40;1.00
19908;DHT22;10116;53.112;7.356;2023-02-27T03:27:18;23.40;1.00
19908;DHT22;10116;53.112;7.356;2023-02-27T03:29:49;23.40;1.00
19908;DHT22;10116;53.112;7.356;2023-02-27T03:32:32;23.40;1.00
19908;DHT22;10116;53.112;7.356;2023-02-27T03:35:00;23.40;1.00
19908;DHT22;10116;53.112;7.356;2023-02-27T03:38:00;23.40;1.00
19908;DHT22;10116;53.112;7.356;2023-02-27T03:40:43;23.40;1.00
19908;DHT22;10116;53.112;7.356;2023-02-27T03:48:23;23.30;1.00
19908;DHT22;10116;53.112;7.356;2023-02-27T03:50:49;23.30;1.00
19908;DHT22;10116;53.112;7.356;2023-02-27T03:53:36;23.30;1.00
19908;DHT22;10116;53.112;7.356;2023-02-27T03:56:05;23.30;1.00
19908;DHT22;10116;53.112;7.356;2023-02-27T03:58:31;23.30;1.00
19908;DHT22;10116;53.112;7.356;2023-02-27T04:00:57;23.30;1.00
19908;DHT22;10116;53.112;7.356;2023-02-27T04:03:23;23.30;1.00
19908;DHT22;10116;53.112;7.356;2023-02-27T04:05:49;23.30;1.00
19908;DHT22;10116;53.112;7.356;2023-02-27T04:11:04;23.30;1.00
19908;DHT22;10116;53.112;7.356;2023-02-27T04:14:00;23.30;1.00
19908;DHT22;10116;53.112;7.356;2023-02-27T04:35:34;23.40;1.00
19908;DHT22;10116;53.112;7.356;2023-02-27T04:40:48;23.50;1.00
19908;DHT22;10116;53.112;7.356;2023-02-27T04:43:15;23.60;1.00
19908;DHT22;10116;53.112;7.356;2023-02-27T04:45:43;23.60;1.00
19908;DHT22;10116;53.112;7.356;2023-02-27T04:48:22;23.70;1.00
19908;DHT22;10116;53.112;7.356;2023-02-27T04:51:01;23.70;1.00
19908;DHT22;10116;53.112;7.356;2023-02-27T04:53:39;23.80;1.00
19908;DHT22;10116;53.112;7.356;2023-02-27T04:56:12;23.80;1.00
19908;DHT22;10116;53.112;7.356;2023-02-27T04:58:47;23.80;1.00
19908;DHT22;10116;53.112;7.356;2023-02-27T05:01:24;23.80;1.00
19908;DHT22;10116;53.112;7.356;2023-02-27T05:03:55;23.80;1.00
19908;DHT22;10116;53.112;7.356;2023-02-27T05:06:26;23.80;1.00
19908;DHT22;10116;53.112;7.356;2023-02-27T05:09:02;23.80;1.00
19908;DHT22;10116;53.112;7.356;2023-02-27T05:11:40;23.70;1.00
19908;DHT22;10116;53.112;7.356;2023-02-27T05:16:51;23.70;1.00
19908;DHT22;10116;53.112;7.356;2023-02-27T05:19:19;23.70;1.00
19908;DHT22;10116;53.112;7.356;2023-02-27T05:24:32;23.70;1.00
19908;DHT22;10116;53.112;7.356;2023-02-27T05:29:50;23.80;1.00
19908;DHT22;10116;53.112;7.356;2023-02-27T05:35:01;23.90;1.00
19908;DHT22;10116;53.112;7.356;2023-02-27T05:38:21;23.90;1.00
19908;DHT22;10116;53.112;7.356;2023-02-27T05:40:45;23.90;1.00
19908;DHT22;10116;53.112;7.356;2023-02-27T05:43:20;24.00;1.00
19908;DHT22;10116;53.112;7.356;2023-02-27T05:45:49;24.00;1.00
19908;DHT22;10116;53.112;7.356;2023-02-27T05:48:47;24.00;1.00
19908;DHT22;10116;53.112;7.356;2023-02-27T05:51:15;24.00;1.00
19908;DHT22;10116;53.112;7.356;2023-02-27T05:53:47;24.00;1.00
19908;DHT22;10116;53.112;7.356;2023-02-27T05:56:17;24.00;1.00
19908;DHT22;10116;53.112;7.356;2023-02-27T05:58:53;24.10;1.00
19908;DHT22;10116;53.112;7.356;2023-02-27T06:01:20;24.10;1.00
19908;DHT22;10116;53.112;7.356;2023-02-27T06:03:45;24.10;1.00
19908;DHT22;10116;53.112;7.356;2023-02-27T06:06:14;24.10;1.00
19908;DHT22;10116;53.112;7.356;2023-02-27T06:08:41;24.00;1.00
19908;DHT22;10116;53.112;7.356;2023-02-27T06:11:07;24.00;1.00
19908;DHT22;10116;53.112;7.356;2023-02-27T06:13:33;24.00;1.00
19908;DHT22;10116;53.112;7.356;2023-02-27T06:15:58;24.00;1.00
19908;DHT22;10116;53.112;7.356;2023-02-27T06:18:24;24.00;1.00
19908;DHT22;10116;53.112;7.356;2023-02-27T06:20:50;24.00;1.00
19908;DHT22;10116;53.112;7.356;2023-02-27T06:23:16;23.90;1.00
19908;DHT22;10116;53.112;7.356;2023-02-27T06:25:42;23.90;1.00
19908;DHT22;10116;53.112;7.356;2023-02-27T06:28:09;23.90;1.00
19908;DHT22;10116;53.112;7.356;2023-02-27T06:30:35;23.90;1.00
19908;DHT22;10116;53.112;7.356;2023-02-27T06:33:01;24.00;1.00
19908;DHT22;10116;53.112;7.356;2023-02-27T06:35:27;24.00;1.00
19908;DHT22;10116;53.112;7.356;2023-02-27T06:37:54;24.00;1.00
19908;DHT22;10116;53.112;7.356;2023-02-27T06:40:20;24.00;1.00
19908;DHT22;10116;53.112;7.356;2023-02-27T06:42:46;24.00;1.00
19908;DHT22;10116;53.112;7.356;2023-02-27T06:45:13;24.00;1.00
19908;DHT22;10116;53.112;7.356;2023-02-27T06:47:39;24.00;1.00
19908;DHT22;10116;53.112;7.356;2023-02-27T06:50:06;24.10;1.00
19908;DHT22;10116;53.112;7.356;2023-02-27T06:52:32;24.10;1.00
19908;DHT22;10116;53.112;7.356;2023-02-27T06:54:58;24.10;1.00
19908;DHT22;10116;53.112;7.356;2023-02-27T06:57:24;24.10;1.00
19908;DHT22;10116;53.112;7.356;2023-02-27T06:59:50;24.10;1.00
19908;DHT22;10116;53.112;7.356;2023-02-27T07:02:17;24.10;1.00
19908;DHT22;10116;53.112;7.356;2023-02-27T07:04:43;24.10;1.00
19908;DHT22;10116;53.112;7.356;2023-02-27T07:07:09;24.00;1.00
19908;DHT22;10116;53.112;7.356;2023-02-27T07:09:35;24.00;1.00
19908;DHT22;10116;53.112;7.356;2023-02-27T07:12:02;24.00;1.00
19908;DHT22;10116;53.112;7.356;2023-02-27T07:14:28;24.00;1.00
19908;DHT22;10116;53.112;7.356;2023-02-27T07:16:54;23.90;1.00
19908;DHT22;10116;53.112;7.356;2023-02-27T07:19:21;23.90;1.00
19908;DHT22;10116;53.112;7.356;2023-02-27T07:21:46;23.90;1.00
19908;DHT22;10116;53.112;7.356;2023-02-27T07:24:12;23.90;1.00
19908;DHT22;10116;53.112;7.356;2023-02-27T07:26:38;23.90;1.00
19908;DHT22;10116;53.112;7.356;2023-02-27T07:29:04;23.90;1.00
19908;DHT22;10116;53.112;7.356;2023-02-27T07:31:29;23.90;1.00
19908;DHT22;10116;53.112;7.356;2023-02-27T07:33:55;23.90;1.00
19908;DHT22;10116;53.112;7.356;2023-02-27T07:36:21;23.90;1.00
19908;DHT22;10116;53.112;7.356;2023-02-27T07:38:47;23.90;1.00
19908;DHT22;10116;53.112;7.356;2023-02-27T07:41:13;23.90;1.00
19908;DHT22;10116;53.112;7.356;2023-02-27T07:43:38;23.90;1.00
19908;DHT22;10116;53.112;7.356;2023-02-27T07:46:04;23.90;1.00
19908;DHT22;10116;53.112;7.356;2023-02-27T07:48:31;23.90;1.00
19908;DHT22;10116;53.112;7.356;2023-02-27T07:50:57;23.90;1.00
19908;DHT22;10116;53.112;7.356;2023-02-27T07:53:23;23.90;1.00
19908;DHT22;10116;53.112;7.356;2023-02-27T07:55:49;23.90;1.00
19908;DHT22;10116;53.112;7.356;2023-02-27T07:58:15;23.90;1.00
19908;DHT22;10116;53.112;7.356;2023-02-27T08:00:41;23.90;1.00
19908;DHT22;10116;53.112;7.356;2023-02-27T08:03:06;23.90;1.00
19908;DHT22;10116;53.112;7.356;2023-02-27T08:05:32;23.90;1.00
19908;DHT22;10116;53.112;7.356;2023-02-27T08:07:58;23.90;1.00
19908;DHT22;10116;53.112;7.356;2023-02-27T08:10:23;23.90;1.00
19908;DHT22;10116;53.112;7.356;2023-02-27T08:12:49;23.90;1.00
19908;DHT22;10116;53.112;7.356;2023-02-27T08:15:15;23.90;1.00
19908;DHT22;10116;53.112;7.356;2023-02-27T08:17:43;23.90;1.00
19908;DHT22;10116;53.112;7.356;2023-02-27T08:20:10;23.90;1.00
19908;DHT22;10116;53.112;7.356;2023-02-27T08:22:37;23.90;1.00
19908;DHT22;10116;53.112;7.356;2023-02-27T08:25:04;23.90;1.00
19908;DHT22;10116;53.112;7.356;2023-02-27T08:27:32;23.90;1.00
19908;DHT22;10116;53.112;7.356;2023-02-27T08:29:58;24.00;1.00
19908;DHT22;10116;53.112;7.356;2023-02-27T08:32:24;24.10;1.00
19908;DHT22;10116;53.112;7.356;2023-02-27T08:34:49;24.10;1.00
19908;DHT22;10116;53.112;7.356;2023-02-27T08:37:15;24.10;1.00
19908;DHT22;10116;53.112;7.356;2023-02-27T08:39:41;24.10;1.00
19908;DHT22;10116;53.112;7.356;2023-02-27T08:42:06;24.10;1.00
19908;DHT22;10116;53.112;7.356;2023-02-27T08:44:32;24.10;1.00
19908;DHT22;10116;53.112;7.356;2023-02-27T08:46:58;24.10;1.00
19908;DHT22;10116;53.112;7.356;2023-02-27T08:49:23;24.10;1.00
19908;DHT22;10116;53.112;7.356;2023-02-27T08:51:50;24.00;1.00
19908;DHT22;10116;53.112;7.356;2023-02-27T08:54:16;24.00;1.00
19908;DHT22;10116;53.112;7.356;2023-02-27T08:56:43;24.00;1.00
19908;DHT22;10116;53.112;7.356;2023-02-27T08:59:08;24.00;1.00
19908;DHT22;10116;53.112;7.356;2023-02-27T09:01:34;23.90;1.00
19908;DHT22;10116;53.112;7.356;2023-02-27T09:04:03;23.90;1.00
19908;DHT22;10116;53.112;7.356;2023-02-27T09:06:30;23.90;1.00
19908;DHT22;10116;53.112;7.356;2023-02-27T09:08:57;23.90;1.00
19908;DHT22;10116;53.112;7.356;2023-02-27T09:11:23;23.90;1.00
19908;DHT22;10116;53.112;7.356;2023-02-27T09:13:50;23.90;1.00
19908;DHT22;10116;53.112;7.356;2023-02-27T09:16:16;23.80;1.00
19908;DHT22;10116;53.112;7.356;2023-02-27T09:18:43;23.80;1.00
19908;DHT22;10116;53.112;7.356;2023-02-27T09:21:08;23.80;1.00
19908;DHT22;10116;53.112;7.356;2023-02-27T09:23:34;23.80;1.00
19908;DHT22;10116;53.112;7.356;2023-02-27T09:26:00;23.80;1.00
19908;DHT22;10116;53.112;7.356;2023-02-27T09:28:25;23.80;1.00
19908;DHT22;10116;53.112;7.356;2023-02-27T09:30:51;23.80;1.00
19908;DHT22;10116;53.112;7.356;2023-02-27T09:33:17;23.80;1.00
19908;DHT22;10116;53.112;7.356;2023-02-27T09:35:43;23.80;1.00
19908;DHT22;10116;53.112;7.356;2023-02-27T09:38:08;23.80;1.00
19908;DHT22;10116;53.112;7.356;2023-02-27T09:40:40;23.80;1.00
19908;DHT22;10116;53.112;7.356;2023-02-27T09:43:15;23.80;1.00
19908;DHT22;10116;53.112;7.356;2023-02-27T09:45:41;23.80;1.00
19908;DHT22;10116;53.112;7.356;2023-02-27T09:50:46;23.80;1.00
19908;DHT22;10116;53.112;7.356;2023-02-27T09:53:21;23.80;1.00
19908;DHT22;10116;53.112;7.356;2023-02-27T09:55:49;23.70;1.00
19908;DHT22;10116;53.112;7.356;2023-02-27T10:01:12;23.70;1.00
19908;DHT22;10116;53.112;7.356;2023-02-27T10:07:01;23.70;1.00
19908;DHT22;10116;53.112;7.356;2023-02-27T10:15:27;23.70;1.00
19908;DHT22;10116;53.112;7.356;2023-02-27T10:18:17;23.70;1.00
19908;DHT22;10116;53.112;7.356;2023-02-27T10:21:06;23.70;1.00
19908;DHT22;10116;53.112;7.356;2023-02-27T10:26:36;23.70;1.00
19908;DHT22;10116;53.112;7.356;2023-02-27T10:29:15;23.70;1.00
19908;DHT22;10116;53.112;7.356;2023-02-27T10:31:42;23.70;1.00
19908;DHT22;10116;53.112;7.356;2023-02-27T10:34:12;23.70;1.00
19908;DHT22;10116;53.112;7.356;2023-02-27T10:36:42;23.80;1.00
19908;DHT22;10116;53.112;7.356;2023-02-27T10:39:13;23.80;1.00
19908;DHT22;10116;53.112;7.356;2023-02-27T10:41:39;23.80;1.00
19908;DHT22;10116;53.112;7.356;2023-02-27T10:44:06;23.70;1.00
19908;DHT22;10116;53.112;7.356;2023-02-27T10:46:35;23.70;1.00
19908;DHT22;10116;53.112;7.356;2023-02-27T10:49:13;23.70;1.00
19908;DHT22;10116;53.112;7.356;2023-02-27T10:51:39;23.70;1.00
19908;DHT22;10116;53.112;7.356;2023-02-27T10:56:57;23.70;1.00
19908;DHT22;10116;53.112;7.356;2023-02-27T10:59:26;23.70;1.00
19908;DHT22;10116;53.112;7.356;2023-02-27T11:02:00;23.70;1.00
19908;DHT22;10116;53.112;7.356;2023-02-27T11:06:56;23.70;1.00
19908;DHT22;10116;53.112;7.356;2023-02-27T11:09:30;23.80;1.00
19908;DHT22;10116;53.112;7.356;2023-02-27T11:12:25;23.80;1.00
19908;DHT22;10116;53.112;7.356;2023-02-27T11:14:53;23.90;1.00
19908;DHT22;10116;53.112;7.356;2023-02-27T11:17:39;23.90;1.00
19908;DHT22;10116;53.112;7.356;2023-02-27T11:23:16;24.00;1.00
19908;DHT22;10116;53.112;7.356;2023-02-27T11:25:43;24.00;1.00
19908;DHT22;10116;53.112;7.356;2023-02-27T11:28:28;24.00;1.00
19908;DHT22;10116;53.112;7.356;2023-02-27T11:31:05;24.00;1.00
19908;DHT22;10116;53.112;7.356;2023-02-27T11:33:38;23.90;1.00
19908;DHT22;10116;53.112;7.356;2023-02-27T11:36:05;23.90;1.00
19908;DHT22;10116;53.112;7.356;2023-02-27T11:38:31;23.90;1.00
19908;DHT22;10116;53.112;7.356;2023-02-27T11:41:03;23.90;1.00
19908;DHT22;10116;53.112;7.356;2023-02-27T11:43:37;23.90;1.00
19908;DHT22;10116;53.112;7.356;2023-02-27T11:46:08;23.90;1.00
19908;DHT22;10116;53.112;7.356;2023-02-27T11:48:40;23.80;1.00
19908;DHT22;10116;53.112;7.356;2023-02-27T11:57:00;23.80;1.00
19908;DHT22;10116;53.112;7.356;2023-02-27T11:59:48;23.80;1.00
19908;DHT22;10116;53.112;7.356;2023-02-27T12:02:40;23.90;1.00
19908;DHT22;10116;53.112;7.356;2023-02-27T12:05:20;23.90;1.00
19908;DHT22;10116;53.112;7.356;2023-02-27T12:08:01;23.90;1.00
19908;DHT22;10116;53.112;7.356;2023-02-27T12:10:50;24.00;1.00
19908;DHT22;10116;53.112;7.356;2023-02-27T12:13:27;24.00;1.00
19908;DHT22;10116;53.112;7.356;2023-02-27T12:22:01;24.00;1.00
19908;DHT22;10116;53.112;7.356;2023-02-27T12:24:38;24.00;1.00
19908;DHT22;10116;53.112;7.356;2023-02-27T12:29:38;24.00;1.00
19908;DHT22;10116;53.112;7.356;2023-02-27T12:34:59;24.00;1.00
19908;DHT22;10116;53.112;7.356;2023-02-27T12:37:28;24.00;1.00
19908;DHT22;10116;53.112;7.356;2023-02-27T12:39:57;24.00;1.00
19908;DHT22;10116;53.112;7.356;2023-02-27T12:50:56;23.90;1.00
19908;DHT22;10116;53.112;7.356;2023-02-27T12:53:28;23.90;1.00
19908;DHT22;10116;53.112;7.356;2023-02-27T12:56:15;23.90;1.00
19908;DHT22;10116;53.112;7.356;2023-02-27T13:01:42;24.00;1.00
19908;DHT22;10116;53.112;7.356;2023-02-27T13:07:23;24.00;1.00
19908;DHT22;10116;53.112;7.356;2023-02-27T13:10:18;24.00;1.00
19908;DHT22;10116;53.112;7.356;2023-02-27T13:13:14;24.00;1.00
19908;DHT22;10116;53.112;7.356;2023-02-27T13:16:03;24.00;1.00
19908;DHT22;10116;53.112;7.356;2023-02-27T13:26:38;24.00;1.00
19908;DHT22;10116;53.112;7.356;2023-02-27T13:29:04;24.00;1.00
19908;DHT22;10116;53.112;7.356;2023-02-27T13:31:53;24.00;1.00
19908;DHT22;10116;53.112;7.356;2023-02-27T13:34:35;24.00;1.00
19908;DHT22;10116;53.112;7.356;2023-02-27T13:37:03;24.00;1.00
19908;DHT22;10116;53.112;7.356;2023-02-27T13:45:01;24.00;1.00
19908;DHT22;10116;53.112;7.356;2023-02-27T13:49:58;24.00;1.00
19908;DHT22;10116;53.112;7.356;2023-02-27T13:52:34;23.90;1.00
19908;DHT22;10116;53.112;7.356;2023-02-27T13:55:01;23.90;1.00
19908;DHT22;10116;53.112;7.356;2023-02-27T13:57:32;23.90;1.00
19908;DHT22;10116;53.112;7.356;2023-02-27T14:00:22;23.90;1.00
19908;DHT22;10116;53.112;7.356;2023-02-27T14:03:06;23.90;1.00
19908;DHT22;10116;53.112;7.356;2023-02-27T14:05:40;23.90;1.00
19908;DHT22;10116;53.112;7.356;2023-02-27T14:08:07;23.90;1.00
19908;DHT22;10116;53.112;7.356;2023-02-27T14:10:35;23.90;1.00
19908;DHT22;10116;53.112;7.356;2023-02-27T14:13:02;23.90;1.00
19908;DHT22;10116;53.112;7.356;2023-02-27T14:18:00;24.00;1.00
19908;DHT22;10116;53.112;7.356;2023-02-27T14:28:19;24.10;1.00
19908;DHT22;10116;53.112;7.356;2023-02-27T14:31:28;24.10;1.00
19908;DHT22;10116;53.112;7.356;2023-02-27T14:33:55;24.20;1.00
19908;DHT22;10116;53.112;7.356;2023-02-27T14:36:28;24.10;1.00
19908;DHT22;10116;53.112;7.356;2023-02-27T14:38:56;24.10;1.00
19908;DHT22;10116;53.112;7.356;2023-02-27T14:44:35;24.10;1.00
19908;DHT22;10116;53.112;7.356;2023-02-27T14:47:02;24.00;1.00
19908;DHT22;10116;53.112;7.356;2023-02-27T14:49:30;24.00;1.00
19908;DHT22;10116;53.112;7.356;2023-02-27T14:52:10;23.90;1.00
19908;DHT22;10116;53.112;7.356;2023-02-27T14:54:36;23.90;1.00
19908;DHT22;10116;53.112;7.356;2023-02-27T14:57:04;23.90;1.00
19908;DHT22;10116;53.112;7.356;2023-02-27T14:59:43;23.90;1.00
19908;DHT22;10116;53.112;7.356;2023-02-27T15:04:41;23.90;1.00
19908;DHT22;10116;53.112;7.356;2023-02-27T15:07:18;23.90;1.00
19908;DHT22;10116;53.112;7.356;2023-02-27T15:09:49;23.90;1.00
19908;DHT22;10116;53.112;7.356;2023-02-27T15:12:18;23.90;1.00
19908;DHT22;10116;53.112;7.356;2023-02-27T15:14:48;23.90;1.00
19908;DHT22;10116;53.112;7.356;2023-02-27T15:17:23;23.90;1.00
19908;DHT22;10116;53.112;7.356;2023-02-27T15:19:52;23.90;1.00
19908;DHT22;10116;53.112;7.356;2023-02-27T15:22:22;24.00;1.00
19908;DHT22;10116;53.112;7.356;2023-02-27T15:24:51;23.90;1.00
19908;DHT22;10116;53.112;7.356;2023-02-27T15:27:21;23.90;1.00
19908;DHT22;10116;53.112;7.356;2023-02-27T15:29:53;23.90;1.00
19908;DHT22;10116;53.112;7.356;2023-02-27T15:32:32;23.90;1.00
19908;DHT22;10116;53.112;7.356;2023-02-27T15:35:19;23.90;1.00
19908;DHT22;10116;53.112;7.356;2023-02-27T15:37:54;23.90;1.00
19908;DHT22;10116;53.112;7.356;2023-02-27T15:40:24;23.90;1.00
19908;DHT22;10116;53.112;7.356;2023-02-27T15:42:51;23.90;1.00
19908;DHT22;10116;53.112;7.356;2023-02-27T15:45:19;23.90;1.00
19908;DHT22;10116;53.112;7.356;2023-02-27T15:47:45;23.90;1.00
19908;DHT22;10116;53.112;7.356;2023-02-27T15:55:15;24.00;1.00
19908;DHT22;10116;53.112;7.356;2023-02-27T15:57:43;24.10;1.00
19908;DHT22;10116;53.112;7.356;2023-02-27T16:00:09;24.10;1.00
19908;DHT22;10116;53.112;7.356;2023-02-27T16:05:25;24.10;1.00
19908;DHT22;10116;53.112;7.356;2023-02-27T16:07:52;24.20;1.00
19908;DHT22;10116;53.112;7.356;2023-02-27T16:10:26;24.20;1.00
19908;DHT22;10116;53.112;7.356;2023-02-27T16:12:51;24.20;1.00
19908;DHT22;10116;53.112;7.356;2023-02-27T16:20:47;24.20;1.00
19908;DHT22;10116;53.112;7.356;2023-02-27T16:23:24;24.10;1.00
19908;DHT22;10116;53.112;7.356;2023-02-27T16:28:51;24.10;1.00
19908;DHT22;10116;53.112;7.356;2023-02-27T16:31:38;24.10;1.00
19908;DHT22;10116;53.112;7.356;2023-02-27T16:34:20;24.10;1.00
19908;DHT22;10116;53.112;7.356;2023-02-27T16:36:58;24.10;1.00
19908;DHT22;10116;53.112;7.356;2023-02-27T16:39:25;24.10;1.00
19908;DHT22;10116;53.112;7.356;2023-02-27T16:41:52;24.20;1.00
19908;DHT22;10116;53.112;7.356;2023-02-27T16:44:18;24.20;1.00
19908;DHT22;10116;53.112;7.356;2023-02-27T16:46:43;24.30;1.00
19908;DHT22;10116;53.112;7.356;2023-02-27T16:49:28;24.30;1.00
19908;DHT22;10116;53.112;7.356;2023-02-27T16:51:54;24.30;1.00
19908;DHT22;10116;53.112;7.356;2023-02-27T16:54:21;24.30;1.00
19908;DHT22;10116;53.112;7.356;2023-02-27T16:56:47;24.30;1.00
19908;DHT22;10116;53.112;7.356;2023-02-27T16:59:35;24.30;1.00
19908;DHT22;10116;53.112;7.356;2023-02-27T17:02:06;24.30;1.00
19908;DHT22;10116;53.112;7.356;2023-02-27T17:04:31;24.30;1.00
19908;DHT22;10116;53.112;7.356;2023-02-27T17:06:59;24.20;1.00
19908;DHT22;10116;53.112;7.356;2023-02-27T17:09:25;24.30;1.00
19908;DHT22;10116;53.112;7.356;2023-02-27T17:11:54;24.30;1.00
19908;DHT22;10116;53.112;7.356;2023-02-27T17:14:21;24.30;1.00
19908;DHT22;10116;53.112;7.356;2023-02-27T17:16:47;24.30;1.00
19908;DHT22;10116;53.112;7.356;2023-02-27T17:19:13;24.20;1.00
19908;DHT22;10116;53.112;7.356;2023-02-27T17:21:39;24.20;1.00
19908;DHT22;10116;53.112;7.356;2023-02-27T17:24:05;24.10;1.00
19908;DHT22;10116;53.112;7.356;2023-02-27T17:26:32;24.10;1.00
19908;DHT22;10116;53.112;7.356;2023-02-27T17:28:58;24.10;1.00
19908;DHT22;10116;53.112;7.356;2023-02-27T17:31:24;24.10;1.00
19908;DHT22;10116;53.112;7.356;2023-02-27T17:33:53;24.20;1.00
19908;DHT22;10116;53.112;7.356;2023-02-27T17:36:20;24.20;1.00
19908;DHT22;10116;53.112;7.356;2023-02-27T17:38:45;24.20;1.00
19908;DHT22;10116;53.112;7.356;2023-02-27T17:41:14;24.30;1.00
19908;DHT22;10116;53.112;7.356;2023-02-27T17:43:40;24.30;1.00
19908;DHT22;10116;53.112;7.356;2023-02-27T17:46:07;24.30;1.00
19908;DHT22;10116;53.112;7.356;2023-02-27T17:48:33;24.30;1.00
19908;DHT22;10116;53.112;7.356;2023-02-27T17:51:08;24.30;1.00
19908;DHT22;10116;53.112;7.356;2023-02-27T17:53:34;24.30;1.00
19908;DHT22;10116;53.112;7.356;2023-02-27T17:56:01;24.30;1.00
19908;DHT22;10116;53.112;7.356;2023-02-27T17:58:27;24.30;1.00
19908;DHT22;10116;53.112;7.356;2023-02-27T18:00:53;24.30;1.00
19908;DHT22;10116;53.112;7.356;2023-02-27T18:03:18;24.30;1.00
19908;DHT22;10116;53.112;7.356;2023-02-27T18:05:51;24.30;1.00
19908;DHT22;10116;53.112;7.356;2023-02-27T18:08:17;24.30;1.00
19908;DHT22;10116;53.112;7.356;2023-02-27T18:10:47;24.30;1.00
19908;DHT22;10116;53.112;7.356;2023-02-27T18:13:13;24.30;1.00
19908;DHT22;10116;53.112;7.356;2023-02-27T18:15:39;24.20;1.00
19908;DHT22;10116;53.112;7.356;2023-02-27T18:18:05;24.20;1.00
19908;DHT22;10116;53.112;7.356;2023-02-27T18:20:30;24.20;1.00
19908;DHT22;10116;53.112;7.356;2023-02-27T18:22:56;24.20;1.00
19908;DHT22;10116;53.112;7.356;2023-02-27T18:25:21;24.30;1.00
19908;DHT22;10116;53.112;7.356;2023-02-27T18:27:48;24.30;1.00
19908;DHT22;10116;53.112;7.356;2023-02-27T18:30:14;24.30;1.00
19908;DHT22;10116;53.112;7.356;2023-02-27T18:32:40;24.40;1.00
19908;DHT22;10116;53.112;7.356;2023-02-27T18:35:07;24.40;1.00
19908;DHT22;10116;53.112;7.356;2023-02-27T18:37:33;24.40;1.00
19908;DHT22;10116;53.112;7.356;2023-02-27T18:39:59;24.50;1.00
19908;DHT22;10116;53.112;7.356;2023-02-27T18:42:24;24.50;1.00
19908;DHT22;10116;53.112;7.356;2023-02-27T18:44:50;24.50;1.00
19908;DHT22;10116;53.112;7.356;2023-02-27T18:47:15;24.60;1.00
19908;DHT22;10116;53.112;7.356;2023-02-27T18:49:41;24.60;1.00
19908;DHT22;10116;53.112;7.356;2023-02-27T18:52:07;24.60;1.00
19908;DHT22;10116;53.112;7.356;2023-02-27T18:54:33;24.60;1.00
19908;DHT22;10116;53.112;7.356;2023-02-27T18:56:58;24.60;1.00
19908;DHT22;10116;53.112;7.356;2023-02-27T18:59:25;24.60;1.00
19908;DHT22;10116;53.112;7.356;2023-02-27T19:01:51;24.60;1.00
19908;DHT22;10116;53.112;7.356;2023-02-27T19:04:18;24.60;1.00
19908;DHT22;10116;53.112;7.356;2023-02-27T19:06:43;24.60;1.00